Terminal Aerodrome Forecast
Issued by NWS

Home | Current Version | Previous Version | Text Only | Print | Product List | Glossary On
Versions: 1 2 3 4 5 6 7 8 9 10 11 12 13 14 15 16 17 18 19 20 21 22 23 24 25 26 27 28 29 30 31 32
000
FTUS41 KBUF 012100 AAA
TAFJHW
TAF AMD
KJHW 012114Z 0121/0218 20010KT P6SM VCTS BKN045CB
     FM020000 20006KT P6SM SCT035
     FM020200 21006KT P6SM BKN035
     FM020500 20008KT P6SM BKN025
     FM020800 22009KT P6SM BKN015
     FM021300 21011KT P6SM VCSH BKN015
     FM021500 23014KT 6SM -SHRA VCTS OVC020CB
      AMD LTD TO CLD VIS AND WIND=

USA.gov is the U.S. government's official web portal to all federal, state and local government web resources and services.